Glenariff, United Kingdom
Current Conditions -  °F | °C
As of 4:20 AM on Thursday 27 Nov 2014 (Local Time) from EGAA Reporting Station
Moderate Fog Moderate Fog  
Wind Chill: 34°   Ceiling: Unl
Heat Index: 34°   Visibility: 0.15mi
Dew Point: 34°   Wind: 2mph
Humidity: 100%   Direction: NA
Pressure: 29.62"   Gusts: NA
Location:  55.05°N, 6.07°W
Report Text: EGAA 270420Z AUTO VRB02KT 0250 R25/0650 R07/0400 FG FEW000/// 01/01 Q1003
Loading
Personal Weather Stations






























Interactive Weather Map New forecast layout! Learn more

10-Day Weather Forecast

Advertisements
Track Severe Weather on mobile